createdAt,value
2018-03-16T00:01:41.674Z,8.43
2018-03-16T00:04:10.052Z,8.48
2018-03-16T00:06:38.887Z,8.43
2018-03-16T00:09:07.279Z,8.57
2018-03-16T00:11:38.641Z,9.20
2018-03-16T00:14:07.009Z,8.43
2018-03-16T00:16:35.388Z,8.53
2018-03-16T00:19:05.046Z,8.17
2018-03-16T00:21:34.175Z,8.50
2018-03-16T00:24:03.023Z,9.23
2018-03-16T00:26:32.503Z,9.20
2018-03-16T00:29:01.661Z,8.00
2018-03-16T00:31:30.068Z,9.20
2018-03-16T00:33:58.828Z,8.98
2018-03-16T00:36:27.959Z,8.33
2018-03-16T00:38:56.297Z,8.10
2018-03-16T00:41:26.178Z,8.27
2018-03-16T00:43:55.334Z,8.63
2018-03-16T00:46:24.438Z,8.07
2018-03-16T00:48:54.103Z,8.75
2018-03-16T00:51:22.436Z,7.80
2018-03-16T00:53:50.835Z,7.28
2018-03-16T00:56:20.054Z,7.47
2018-03-16T00:58:48.423Z,6.87
2018-03-16T01:01:16.773Z,7.62
2018-03-16T01:03:45.556Z,6.70
2018-03-16T01:06:14.727Z,7.03
2018-03-16T01:08:43.093Z,7.20
2018-03-16T01:11:12.184Z,6.80
2018-03-16T01:13:42.080Z,6.70
2018-03-16T01:16:11.202Z,6.18
2018-03-16T01:18:41.124Z,6.43
2018-03-16T01:21:09.484Z,5.90
2018-03-16T01:23:37.840Z,5.70
2018-03-16T01:26:07.422Z,6.22
2018-03-16T01:28:35.750Z,6.00
2018-03-16T01:31:04.878Z,5.53
2018-03-16T01:33:34.395Z,5.87
2018-03-16T01:36:02.755Z,5.35
2018-03-16T01:38:31.138Z,4.97
2018-03-16T01:41:01.197Z,5.70
2018-03-16T01:43:29.530Z,5.00
2018-03-16T01:45:57.888Z,4.10
2018-03-16T01:48:27.150Z,4.32
2018-03-16T01:50:55.512Z,4.57
2018-03-16T01:53:23.859Z,4.70
2018-03-16T01:55:52.735Z,4.30
2018-03-16T01:58:21.082Z,4.03
2018-03-16T02:00:49.465Z,4.40
2018-03-16T02:03:18.971Z,4.22
2018-03-16T02:05:47.346Z,3.83
2018-03-16T02:08:15.750Z,4.50
2018-03-16T02:10:44.654Z,3.70
2018-03-16T02:13:13.019Z,4.03
2018-03-16T02:15:42.939Z,3.90
2018-03-16T02:18:12.126Z,4.60
2018-03-16T02:20:41.725Z,3.90
2018-03-16T02:23:11.353Z,4.60
2018-03-16T02:25:40.882Z,4.20
2018-03-16T02:28:09.229Z,5.03
2018-03-16T02:30:38.389Z,4.95
2018-03-16T02:33:08.196Z,4.93
2018-03-16T02:35:37.324Z,5.20
2018-03-16T02:38:05.687Z,4.80
2018-03-16T02:40:34.753Z,5.35
2018-03-16T02:43:03.112Z,5.20
2018-03-16T02:45:32.224Z,4.95
2018-03-16T02:48:04.569Z,4.70
2018-03-16T02:50:32.924Z,5.18
2018-03-16T02:53:01.326Z,5.50
2018-03-16T02:55:30.390Z,5.32
2018-03-16T02:57:58.757Z,5.57
2018-03-16T03:00:27.154Z,5.35
2018-03-16T03:02:56.490Z,5.35
2018-03-16T03:05:24.858Z,5.57
2018-03-16T03:07:53.237Z,5.35
2018-03-16T03:10:22.701Z,4.93
2018-03-16T03:12:51.833Z,5.62
2018-03-16T03:15:20.952Z,5.32
2018-03-16T03:17:51.221Z,6.05
2018-03-16T03:20:20.334Z,5.60
2018-03-16T03:22:48.702Z,6.95
2018-03-16T03:25:18.542Z,5.45
2018-03-16T03:27:46.892Z,6.20
2018-03-16T03:30:15.231Z,6.25
2018-03-16T03:32:44.632Z,7.25
2018-03-16T03:35:13.772Z,6.53
2018-03-16T03:37:42.179Z,7.45
2018-03-16T03:40:14.715Z,6.97
2018-03-16T03:42:43.066Z,7.90
2018-03-16T03:45:11.428Z,7.75
2018-03-16T03:47:41.289Z,8.23
2018-03-16T03:50:09.671Z,6.72
2018-03-16T03:52:38.041Z,7.90
2018-03-16T03:55:07.052Z,7.70
2018-03-16T03:57:35.411Z,6.90
2018-03-16T04:00:03.788Z,8.05
2018-03-16T04:02:32.923Z,8.25
2018-03-16T04:05:01.290Z,8.07
2018-03-16T04:07:29.660Z,8.55
2018-03-16T04:09:58.736Z,8.60
2018-03-16T04:12:27.095Z,9.23
2018-03-16T04:14:55.477Z,9.45
2018-03-16T04:17:24.427Z,8.70
2018-03-16T04:19:54.365Z,8.25
2018-03-16T04:22:22.733Z,7.50
2018-03-16T04:24:52.239Z,7.65
2018-03-16T04:27:20.600Z,7.12
2018-03-16T04:29:49.000Z,6.07
2018-03-16T04:32:17.798Z,7.10
2018-03-16T04:34:46.144Z,6.03
2018-03-16T04:37:15.282Z,4.95
2018-03-16T04:39:45.689Z,6.00
2018-03-16T04:42:14.807Z,6.18
2018-03-16T04:44:43.167Z,5.95
2018-03-16T04:47:13.127Z,6.70
2018-03-16T04:49:41.484Z,5.60
2018-03-16T04:52:09.853Z,5.50
2018-03-16T04:54:38.678Z,5.65
2018-03-16T04:57:07.049Z,5.15
2018-03-16T04:59:35.410Z,5.62
2018-03-16T05:02:05.209Z,7.07
2018-03-16T05:04:33.618Z,5.72
2018-03-16T05:07:01.980Z,5.85
2018-03-16T05:09:31.812Z,6.20
2018-03-16T05:12:00.931Z,6.93
2018-03-16T05:14:29.290Z,7.28
2018-03-16T05:16:58.840Z,6.53
2018-03-16T05:19:30.222Z,6.50
2018-03-16T05:22:00.479Z,6.75
2018-03-16T05:24:29.606Z,6.20
2018-03-16T05:26:57.978Z,6.50
2018-03-16T05:29:27.190Z,7.00
2018-03-16T05:31:55.541Z,5.90
2018-03-16T05:34:23.926Z,6.05
2018-03-16T05:36:53.725Z,6.30
2018-03-16T05:39:22.877Z,5.65
2018-03-16T05:41:51.262Z,6.70
2018-03-16T05:44:21.270Z,6.70
2018-03-16T05:46:49.599Z,5.90
2018-03-16T05:49:17.959Z,5.60
2018-03-16T05:51:46.708Z,5.97
2018-03-16T05:54:15.079Z,5.40
2018-03-16T05:56:43.412Z,5.35
2018-03-16T05:59:12.719Z,5.78
2018-03-16T06:01:41.091Z,5.50
2018-03-16T06:04:09.508Z,5.20
2018-03-16T06:06:38.729Z,5.28
2018-03-16T06:09:07.095Z,5.68
2018-03-16T06:11:35.496Z,4.87
2018-03-16T06:14:05.201Z,4.93
2018-03-16T06:16:33.608Z,4.40
2018-03-16T06:19:02.726Z,4.68
2018-03-16T06:21:31.836Z,4.55
2018-03-16T06:24:01.367Z,3.92
2018-03-16T06:26:29.768Z,4.43
2018-03-16T06:28:59.372Z,4.37
2018-03-16T06:31:27.724Z,4.10
2018-03-16T06:33:56.132Z,3.28
2018-03-16T06:36:25.614Z,4.68
2018-03-16T06:38:53.975Z,3.60
2018-03-16T06:41:23.225Z,4.15
2018-03-16T06:43:52.227Z,3.95
2018-03-16T06:46:20.558Z,4.40
2018-03-16T06:48:49.655Z,4.05
2018-03-16T06:51:19.704Z,4.18
2018-03-16T06:53:48.050Z,4.30
2018-03-16T06:56:17.165Z,4.65
2018-03-16T06:58:45.957Z,4.90
2018-03-16T07:01:15.713Z,4.65
2018-03-16T07:03:44.074Z,4.60
2018-03-16T07:06:13.393Z,4.75
2018-03-16T07:08:41.798Z,5.22
2018-03-16T07:11:10.148Z,4.70
2018-03-16T07:13:39.350Z,4.50
2018-03-16T07:16:07.722Z,4.97
2018-03-16T07:18:36.080Z,4.20
2018-03-16T07:21:05.910Z,4.10
2018-03-16T07:23:35.027Z,3.70
2018-03-16T07:26:04.821Z,4.47
2018-03-16T07:28:33.952Z,4.33
2018-03-16T07:31:02.301Z,3.93
2018-03-16T07:33:31.415Z,3.37
2018-03-16T07:36:00.794Z,3.47
2018-03-16T07:38:29.155Z,4.00
2018-03-16T07:40:58.247Z,3.90
2018-03-16T07:43:27.345Z,3.77
2018-03-16T07:46:03.206Z,3.50
2018-03-16T07:48:31.992Z,3.60
2018-03-16T07:51:00.367Z,3.80
2018-03-16T07:53:28.710Z,3.90
2018-03-16T07:55:59.106Z,3.83
2018-03-16T07:58:27.451Z,3.50
2018-03-16T08:00:55.775Z,2.93
2018-03-16T08:03:24.643Z,3.07
2018-03-16T08:05:53.064Z,2.80
2018-03-16T08:08:22.187Z,2.97
2018-03-16T08:10:51.206Z,2.60
2018-03-16T08:13:19.582Z,2.63
2018-03-16T08:15:47.923Z,2.43
2018-03-16T08:18:18.518Z,2.67
2018-03-16T08:20:46.870Z,2.37
2018-03-16T08:23:15.236Z,2.83
2018-03-16T08:25:44.312Z,2.63
2018-03-16T08:28:13.918Z,3.00
2018-03-16T08:30:42.278Z,3.20
2018-03-16T08:33:11.254Z,2.40
2018-03-16T08:35:39.634Z,2.27
2018-03-16T08:38:08.010Z,2.30
2018-03-16T08:40:37.575Z,2.13
2018-03-16T08:43:05.945Z,2.53
2018-03-16T08:45:35.187Z,2.30
2018-03-16T08:48:04.891Z,2.10
2018-03-16T08:50:34.031Z,2.13
2018-03-16T08:53:02.392Z,1.93
2018-03-16T08:55:32.441Z,2.37
2018-03-16T08:58:00.844Z,2.13
2018-03-16T09:00:29.207Z,2.40
2018-03-16T09:02:58.934Z,2.30
2018-03-16T09:05:27.323Z,2.40
2018-03-16T09:07:55.758Z,2.47
2018-03-16T09:10:25.808Z,2.30
2018-03-16T09:12:54.186Z,2.03
2018-03-16T09:15:22.582Z,2.70
2018-03-16T09:17:51.934Z,2.40
2018-03-16T09:20:20.309Z,2.50
2018-03-16T09:22:48.668Z,2.53
2018-03-16T09:25:17.978Z,2.57
2018-03-16T09:27:46.335Z,2.97
2018-03-16T09:30:15.938Z,3.20
2018-03-16T09:32:45.808Z,3.10
2018-03-16T09:35:14.238Z,3.30
2018-03-16T09:37:42.647Z,3.43
2018-03-16T09:40:12.168Z,3.67
2018-03-16T09:42:40.559Z,3.63
2018-03-16T09:45:08.886Z,3.97
2018-03-16T09:47:38.262Z,4.60
2018-03-16T09:50:06.621Z,4.40
2018-03-16T09:52:34.979Z,4.17
2018-03-16T09:55:16.055Z,4.57
2018-03-16T09:57:45.068Z,5.73
2018-03-16T10:00:19.164Z,4.80
2018-03-16T10:02:47.530Z,4.90
2018-03-16T10:05:15.885Z,5.43
2018-03-16T10:07:45.622Z,6.07
2018-03-16T10:10:15.553Z,5.03
2018-03-16T10:12:43.968Z,5.00
2018-03-16T10:15:13.312Z,4.67
2018-03-16T10:17:42.491Z,4.60
2018-03-16T10:20:10.831Z,4.40
2018-03-16T10:22:40.104Z,4.80
2018-03-16T10:25:09.954Z,5.00
2018-03-16T10:27:39.096Z,4.50
2018-03-16T10:30:07.449Z,4.60
2018-03-16T10:32:39.826Z,4.80
2018-03-16T10:35:08.965Z,4.40
2018-03-16T10:37:38.086Z,4.27
2018-03-16T10:40:07.335Z,3.60
2018-03-16T10:42:35.685Z,4.20
2018-03-16T10:45:04.065Z,4.70
2018-03-16T10:47:33.332Z,4.87
2018-03-16T10:50:01.713Z,5.50
2018-03-16T10:52:30.862Z,5.43
2018-03-16T10:55:00.091Z,5.10
2018-03-16T10:57:28.454Z,4.90
2018-03-16T10:59:56.819Z,4.73
2018-03-16T11:02:26.088Z,5.83
2018-03-16T11:05:02.074Z,5.00
2018-03-16T11:10:32.907Z,5.33
2018-03-16T11:13:02.400Z,4.60
2018-03-16T11:15:30.780Z,4.87
2018-03-16T11:17:59.950Z,4.80
2018-03-16T11:20:29.265Z,4.90
2018-03-16T11:22:58.451Z,4.93
2018-03-16T11:25:26.850Z,4.27
2018-03-16T11:27:56.159Z,4.13
2018-03-16T11:30:24.504Z,4.20
2018-03-16T11:32:54.369Z,3.43
2018-03-16T11:35:23.943Z,3.50
2018-03-16T11:37:52.725Z,3.60
2018-03-16T11:40:22.748Z,3.67
2018-03-16T11:42:52.358Z,3.67
2018-03-16T11:45:20.764Z,3.83
2018-03-16T11:47:49.130Z,3.00
2018-03-16T11:50:18.429Z,3.67
2018-03-16T11:52:46.786Z,3.20
2018-03-16T11:55:15.996Z,3.70
2018-03-16T11:57:46.469Z,4.20
2018-03-16T12:00:14.836Z,4.17
2018-03-16T12:02:43.215Z,3.70
2018-03-16T12:05:12.351Z,3.90
2018-03-16T12:07:41.514Z,5.03
2018-03-16T12:10:09.886Z,5.13
2018-03-16T12:12:38.926Z,5.50
2018-03-16T12:15:07.306Z,5.07
2018-03-16T12:17:40.906Z,4.63
2018-03-16T12:20:09.292Z,4.30
2018-03-16T12:22:37.696Z,3.87
2018-03-16T12:25:07.695Z,4.33
2018-03-16T12:27:36.082Z,3.93
2018-03-16T12:30:04.539Z,3.90
2018-03-16T12:32:33.326Z,3.50
2018-03-16T12:35:03.523Z,3.90
2018-03-16T12:37:32.648Z,3.90
2018-03-16T12:40:03.326Z,3.70
2018-03-16T12:42:32.481Z,4.13
2018-03-16T12:45:00.850Z,4.17
2018-03-16T12:47:30.408Z,3.30
2018-03-16T12:49:58.746Z,3.13
2018-03-16T12:52:27.142Z,3.30
2018-03-16T12:54:56.476Z,3.60
2018-03-16T12:57:24.843Z,3.20
2018-03-16T12:59:53.408Z,3.30
2018-03-16T13:02:22.704Z,3.43
2018-03-16T13:04:51.935Z,3.50
2018-03-16T13:07:21.241Z,3.30
2018-03-16T13:09:51.614Z,3.40
2018-03-16T13:12:20.824Z,2.90
2018-03-16T13:14:49.244Z,3.50
2018-03-16T13:17:18.580Z,3.13
2018-03-16T13:19:46.978Z,3.33
2018-03-16T13:22:15.381Z,3.17
2018-03-16T13:24:44.614Z,3.70
2018-03-16T13:27:13.011Z,3.27
2018-03-16T13:29:41.424Z,3.57
2018-03-16T13:32:11.030Z,3.70
2018-03-16T13:34:39.414Z,2.70
2018-03-16T13:37:09.241Z,3.20
2018-03-16T13:39:38.527Z,3.13
2018-03-16T13:42:06.929Z,3.00
2018-03-16T13:44:36.107Z,3.60
2018-03-16T13:47:05.511Z,3.23
2018-03-16T13:49:34.744Z,3.63
2018-03-16T13:52:03.122Z,3.07
2018-03-16T13:54:32.545Z,3.13
2018-03-16T13:57:00.887Z,3.23
2018-03-16T13:59:30.103Z,3.80
2018-03-16T14:01:59.664Z,3.90
2018-03-16T14:04:29.768Z,3.40
2018-03-16T14:06:58.936Z,2.43
2018-03-16T14:09:27.990Z,2.77
2018-03-16T14:11:57.119Z,2.83
2018-03-16T14:14:25.548Z,3.00
2018-03-16T14:16:54.715Z,2.43
2018-03-16T14:19:23.105Z,3.00
2018-03-16T14:21:52.310Z,3.00
2018-03-16T14:24:21.610Z,3.00
2018-03-16T14:26:50.008Z,3.13
2018-03-16T14:29:19.161Z,2.80
2018-03-16T14:31:48.305Z,2.70
2018-03-16T14:34:16.656Z,3.10
2018-03-16T14:36:45.055Z,2.90
2018-03-16T14:39:15.495Z,2.77
2018-03-16T14:41:43.901Z,2.97
2018-03-16T14:46:41.850Z,3.20
2018-03-16T14:49:10.234Z,2.80
2018-03-16T14:51:38.621Z,4.07
2018-03-16T14:54:08.094Z,2.83
2018-03-16T14:56:37.205Z,3.60
2018-03-16T14:59:05.564Z,3.30
2018-03-16T15:01:35.546Z,3.63
2018-03-16T15:04:03.937Z,3.50
2018-03-16T15:06:32.303Z,3.47
2018-03-16T15:09:01.391Z,2.93
2018-03-16T15:11:29.807Z,3.30
2018-03-16T15:14:02.372Z,3.30
2018-03-16T15:16:30.801Z,3.00
2018-03-16T15:18:59.925Z,3.80
2018-03-16T15:21:31.960Z,3.30
2018-03-16T15:24:00.312Z,3.50
2018-03-16T15:26:28.643Z,3.30
2018-03-16T15:28:58.400Z,3.23
2018-03-16T15:31:26.720Z,3.70
2018-03-16T15:33:55.873Z,3.60
2018-03-16T15:36:24.829Z,3.80
2018-03-16T15:38:53.929Z,3.10
2018-03-16T15:41:25.341Z,3.43
2018-03-16T15:43:53.664Z,3.33
2018-03-16T15:46:22.783Z,3.10
2018-03-16T15:48:52.791Z,2.67
2018-03-16T15:51:21.872Z,2.80
2018-03-16T15:53:50.252Z,3.13
2018-03-16T15:56:19.576Z,2.37
2018-03-16T15:58:48.677Z,2.23
2018-03-16T16:01:17.778Z,2.07
2018-03-16T16:03:47.564Z,2.17
2018-03-16T16:06:15.861Z,2.30
2018-03-16T16:08:44.188Z,2.17
2018-03-16T16:11:12.941Z,2.50
2018-03-16T16:13:41.281Z,2.70
2018-03-16T16:16:09.611Z,2.60
2018-03-16T16:18:41.018Z,2.40
2018-03-16T16:21:09.335Z,2.13
2018-03-16T16:23:38.422Z,2.43
2018-03-16T16:26:07.710Z,2.50
2018-03-16T16:28:36.818Z,3.00
2018-03-16T16:31:05.144Z,3.00
2018-03-16T16:33:35.363Z,2.90
2018-03-16T16:36:04.460Z,2.77
2018-03-16T16:38:33.548Z,2.70
2018-03-16T16:41:02.694Z,2.63
2018-03-16T16:43:32.201Z,2.80
2018-03-16T16:46:00.494Z,2.40
2018-03-16T16:48:31.388Z,2.70
2018-03-16T16:51:00.469Z,2.67
2018-03-16T16:53:31.819Z,3.27
2018-03-16T16:56:01.030Z,2.77
2018-03-16T16:58:30.115Z,3.07
2018-03-16T17:00:59.125Z,2.50
2018-03-16T17:03:29.133Z,3.43
2018-03-16T17:05:57.522Z,3.30
2018-03-16T17:08:27.147Z,2.57
2018-03-16T17:10:55.808Z,2.83
2018-03-16T17:13:26.453Z,2.63
2018-03-16T17:15:55.555Z,3.47
2018-03-16T17:18:23.965Z,3.23
2018-03-16T17:20:53.881Z,2.27
2018-03-16T17:23:22.265Z,2.80
2018-03-16T17:25:50.714Z,2.70
2018-03-16T17:28:21.808Z,2.70
2018-03-16T17:30:50.179Z,2.45
2018-03-16T17:33:19.509Z,3.00
2018-03-16T17:35:48.862Z,3.75
2018-03-16T17:38:18.942Z,3.77
2018-03-16T17:40:47.460Z,3.75
2018-03-16T17:43:16.731Z,3.63
2018-03-16T17:45:47.619Z,3.35
2018-03-16T17:48:16.847Z,3.30
2018-03-16T17:50:45.413Z,3.45
2018-03-16T17:53:14.050Z,3.40
2018-03-16T17:55:44.202Z,3.20
2018-03-16T17:58:12.812Z,3.53
2018-03-16T18:00:41.621Z,3.35
2018-03-16T18:03:12.014Z,3.20
2018-03-16T18:05:41.588Z,3.17
2018-03-16T18:08:10.411Z,3.50
2018-03-16T18:10:39.869Z,4.05
2018-03-16T18:13:08.491Z,4.15
2018-03-16T18:15:42.394Z,4.15
2018-03-16T18:18:11.831Z,5.72
2018-03-16T18:20:42.179Z,4.30
2018-03-16T18:23:10.810Z,5.00
2018-03-16T18:25:40.224Z,3.80
2018-03-16T18:28:10.819Z,4.40
2018-03-16T18:30:39.425Z,4.35
2018-03-16T18:33:08.835Z,4.55
2018-03-16T18:35:38.419Z,5.50
2018-03-16T18:40:49.445Z,6.43
2018-03-16T18:43:19.022Z,9.95
2018-03-16T18:45:49.106Z,9.95
2018-03-16T18:48:18.192Z,8.45
2018-03-16T18:50:46.845Z,6.05
2018-03-16T18:53:15.446Z,5.53
2018-03-16T18:55:45.084Z,4.70
2018-03-16T18:58:14.433Z,5.00
2018-03-16T19:00:43.141Z,7.22
2018-03-16T19:03:11.875Z,6.60
2018-03-16T19:05:40.158Z,5.65
2018-03-16T19:08:08.500Z,7.18
2018-03-16T19:10:37.541Z,7.07
2018-03-16T19:13:06.702Z,6.95
2018-03-16T19:15:35.315Z,7.40
2018-03-16T19:18:05.434Z,6.55
2018-03-16T19:20:34.059Z,7.60
2018-03-16T19:23:02.658Z,7.87
2018-03-16T19:25:32.204Z,7.00
2018-03-16T19:28:00.800Z,8.45
2018-03-16T19:30:29.184Z,8.00
2018-03-16T19:32:58.572Z,8.65
2018-03-16T19:44:33.454Z,9.95
2018-03-16T19:47:04.617Z,9.10
2018-03-16T19:49:33.259Z,10.20
2018-03-16T19:52:01.592Z,9.10
2018-03-16T19:54:30.522Z,9.80
2018-03-16T19:56:58.827Z,10.30
2018-03-16T19:59:27.155Z,9.02
2018-03-16T20:01:57.064Z,9.50
2018-03-16T20:04:25.349Z,9.82
2018-03-16T20:06:54.420Z,10.20
2018-03-16T20:09:23.617Z,9.40
2018-03-16T20:21:17.195Z,11.40
2018-03-16T20:23:59.479Z,10.90
2018-03-16T20:26:28.556Z,11.85
2018-03-16T20:28:57.196Z,12.35
2018-03-16T20:31:25.809Z,13.07
2018-03-16T20:33:56.498Z,13.07
2018-03-16T20:36:25.811Z,14.38
2018-03-16T20:38:55.604Z,15.10
2018-03-16T20:41:23.960Z,14.60
2018-03-16T20:43:53.030Z,15.63
2018-03-16T20:46:22.286Z,16.92
2018-03-16T20:48:53.000Z,19.85
2018-03-16T20:51:21.613Z,18.12
2018-03-16T20:53:51.960Z,18.73
2018-03-16T20:56:21.310Z,16.85
2018-03-16T20:58:50.930Z,16.95
2018-03-16T21:01:21.080Z,17.35
2018-03-16T21:03:50.567Z,16.48
2018-03-16T21:06:19.234Z,16.40
2018-03-16T21:08:48.385Z,17.42
2018-03-16T21:11:17.019Z,14.23
2018-03-16T21:13:47.535Z,16.42
2018-03-16T21:16:16.701Z,14.32
2018-03-16T21:18:46.055Z,13.82
2018-03-16T21:21:14.777Z,13.70
2018-03-16T21:23:44.302Z,14.77
2018-03-16T21:26:12.661Z,13.62
2018-03-16T21:28:41.012Z,14.40
2018-03-16T21:31:10.840Z,15.30
2018-03-16T21:33:39.092Z,14.02
2018-03-16T21:36:07.381Z,14.90
2018-03-16T21:38:36.398Z,16.37
2018-03-16T21:41:04.726Z,14.63
2018-03-16T21:43:33.030Z,15.30
2018-03-16T21:46:02.676Z,14.10
2018-03-16T21:48:30.975Z,14.85
2018-03-16T21:51:00.852Z,17.23
2018-03-16T21:53:31.028Z,18.35
2018-03-16T21:55:59.373Z,18.00
2018-03-16T21:58:28.499Z,18.55
2018-03-16T22:00:57.754Z,18.12
2018-03-16T22:03:26.091Z,15.07
2018-03-16T22:05:55.146Z,16.58
2018-03-16T22:08:23.875Z,16.52
2018-03-16T22:10:52.951Z,15.30
2018-03-16T22:13:21.251Z,15.32
2018-03-16T22:15:50.961Z,15.88
2018-03-16T22:18:19.269Z,15.52
2018-03-16T22:20:47.558Z,15.63
2018-03-16T22:23:16.838Z,14.85
2018-03-16T22:25:45.880Z,14.70
2018-03-16T22:28:14.223Z,14.70
2018-03-16T22:30:46.439Z,15.35
2018-03-16T22:33:14.827Z,15.27
2018-03-16T22:35:43.097Z,14.90
2018-03-16T22:38:12.116Z,14.18
2018-03-16T22:40:40.509Z,16.12
2018-03-16T22:43:09.599Z,15.55
2018-03-16T22:45:38.556Z,15.80
2018-03-16T22:48:07.862Z,17.33
2018-03-16T22:50:36.168Z,16.50
2018-03-16T22:53:09.508Z,17.35
2018-03-16T22:55:38.567Z,17.27
2018-03-16T22:58:07.000Z,20.30
2018-03-16T23:00:36.815Z,21.05
2018-03-16T23:03:05.135Z,18.75
2018-03-16T23:05:33.465Z,18.30
2018-03-16T23:08:02.967Z,18.02
2018-03-16T23:10:32.055Z,17.10
2018-03-16T23:13:00.342Z,20.50
2018-03-16T23:15:29.339Z,19.48
2018-03-16T23:17:57.651Z,21.02
2018-03-16T23:20:26.708Z,19.67
2018-03-16T23:22:55.585Z,23.05
2018-03-16T23:25:23.892Z,20.37
2018-03-16T23:27:52.191Z,21.98
2018-03-16T23:30:20.868Z,19.70
2018-03-16T23:32:49.197Z,19.52
2018-03-16T23:35:17.492Z,17.48
2018-03-16T23:37:46.218Z,16.25
2018-03-16T23:40:14.589Z,17.08
2018-03-16T23:42:42.893Z,18.20
2018-03-16T23:45:12.206Z,15.35
2018-03-16T23:47:41.283Z,16.58
2018-03-16T23:50:09.582Z,17.00
2018-03-16T23:52:38.452Z,17.37
2018-03-16T23:55:08.351Z,17.05
2018-03-16T23:57:36.665Z,17.20
